Time;durP1;ratioP1;P1;durP2;ratioP2;P2;SDS_P1;SDS_P2;PMS_P1;PMS_P2;Temp;Humidity;BMP_temperature;BMP_pressure;BME280_temperature;BME280_humidity;BME280_pressure;Samples;Min_cycle;Max_cycle;Signal;HPM_P1;HPM_P2
2021/12/22 00:00:20;;;;;;;4.53;3.53;;;;;;;;;;5105428;28;20691;-78
2021/12/22 00:02:48;;;;;;;10.73;4.10;;;;;;;;;;5104721;28;20231;-78
2021/12/22 00:05:18;;;;;;;49.07;13.20;;;;;;;;;;5105006;28;20200;-78
2021/12/22 00:07:48;;;;;;;96.87;23.53;;;;;;;;;;5102007;28;20219;-77
2021/12/22 00:10:16;;;;;;;14.03;6.03;;;;;;;;;;5104185;28;20203;-78
2021/12/22 00:12:43;;;;;;;29.60;9.53;;;;;;;;;;5104810;28;20639;-78
2021/12/22 00:15:11;;;;;;;4.80;3.33;;;;;;;;;;5106254;28;20205;-78
2021/12/22 00:17:39;;;;;;;22.00;6.63;;;;;;;;;;5105024;28;20215;-78
2021/12/22 00:20:08;;;;;;;16.00;7.10;;;;;;;;;;5106056;28;20193;-78
2021/12/22 00:22:36;;;;;;;25.63;8.73;;;;;;;;;;5103138;28;20291;-79
2021/12/22 00:25:06;;;;;;;11.40;5.50;;;;;;;;;;5105452;28;20193;-78
2021/12/22 00:27:33;;;;;;;5.83;4.27;;;;;;;;;;5104219;28;20462;-77
2021/12/22 00:30:00;;;;;;;5.20;4.10;;;;;;;;;;5104909;28;20276;-78
2021/12/22 00:32:30;;;;;;;7.30;3.73;;;;;;;;;;5102636;28;20200;-78
2021/12/22 00:34:57;;;;;;;2.30;2.10;;;;;;;;;;5107922;28;20192;-79
2021/12/22 00:37:26;;;;;;;3.07;2.47;;;;;;;;;;5103514;28;20196;-78
2021/12/22 00:39:54;;;;;;;2.70;2.20;;;;;;;;;;5107816;28;20198;-78
2021/12/22 00:42:24;;;;;;;4.40;2.37;;;;;;;;;;5096822;28;20696;-78
2021/12/22 00:44:53;;;;;;;2.53;2.07;;;;;;;;;;5107696;28;20196;-78
2021/12/22 00:47:22;;;;;;;2.40;2.10;;;;;;;;;;5103016;28;20856;-78
2021/12/22 00:49:50;;;;;;;3.10;2.80;;;;;;;;;;5099739;28;20218;-78
2021/12/22 00:52:17;;;;;;;2.40;2.17;;;;;;;;;;5109853;28;20196;-78
2021/12/22 00:54:45;;;;;;;3.90;2.33;;;;;;;;;;5097624;28;20191;-78
2021/12/22 00:57:14;;;;;;;2.37;2.17;;;;;;;;;;5104899;28;20188;-78
2021/12/22 00:59:45;;;;;;;2.93;2.40;;;;;;;;;;5106056;28;20223;-78
2021/12/22 01:02:15;;;;;;;2.93;2.40;;;;;;;;;;5096264;28;20185;-78
2021/12/22 01:04:43;;;;;;;45.57;16.77;;;;;;;;;;5102535;28;20532;-78
2021/12/22 01:07:11;;;;;;;5.23;4.13;;;;;;;;;;5103181;28;20708;-79
2021/12/22 01:09:38;;;;;;;3.10;2.70;;;;;;;;;;5106270;28;20995;-79
2021/12/22 01:12:07;;;;;;;4.83;2.60;;;;;;;;;;5096020;28;20643;-79
2021/12/22 01:14:34;;;;;;;4.97;2.87;;;;;;;;;;5108305;27;20492;-79
2021/12/22 01:17:03;;;;;;;72.27;23.17;;;;;;;;;;5093003;28;20470;-79
2021/12/22 01:19:39;;;;;;;45.43;18.30;;;;;;;;;;5108537;28;20206;-79
2021/12/22 01:22:19;;;;;;;9.03;5.50;;;;;;;;;;5096189;28;20262;-79
2021/12/22 01:24:58;;;;;;;25.53;9.97;;;;;;;;;;5103687;27;20192;-79
2021/12/22 01:27:27;;;;;;;393.33;154.03;;;;;;;;;;5107645;28;20518;-79
2021/12/22 01:29:54;;;;;;;110.03;46.47;;;;;;;;;;5096536;28;20449;-79
2021/12/22 01:32:25;;;;;;;16.50;12.07;;;;;;;;;;5109022;28;20818;-79
2021/12/22 01:34:52;;;;;;;55.90;24.23;;;;;;;;;;5099828;28;20979;-79
2021/12/22 01:37:19;;;;;;;4.97;3.93;;;;;;;;;;5101271;28;20435;-79
2021/12/22 01:39:46;;;;;;;3.57;3.00;;;;;;;;;;5092909;28;20503;-78
2021/12/22 01:42:14;;;;;;;10.27;6.07;;;;;;;;;;5092655;28;20877;-79
2021/12/22 01:45:00;;;;;;;10.83;6.47;;;;;;;;;;5101548;28;20961;-78
2021/12/22 01:50:16;;;;;;;34.03;13.83;;;;;;;;;;5106581;28;20470;-79
2021/12/22 01:52:43;;;;;;;18.70;6.97;;;;;;;;;;5095448;28;20442;-79
2021/12/22 01:55:25;;;;;;;5.40;3.47;;;;;;;;;;5112976;28;20433;-78
2021/12/22 01:57:52;;;;;;;3.80;2.80;;;;;;;;;;5112541;28;20428;-78
2021/12/22 02:00:23;;;;;;;52.70;19.40;;;;;;;;;;5112474;28;20960;-79
2021/12/22 02:02:52;;;;;;;35.90;14.57;;;;;;;;;;5113014;28;20275;-78
2021/12/22 02:05:20;;;;;;;15.30;9.00;;;;;;;;;;5112467;28;20199;-78
2021/12/22 02:07:49;;;;;;;69.77;29.43;;;;;;;;;;5094755;28;20474;-78
2021/12/22 02:10:34;;;;;;;19.77;10.90;;;;;;;;;;5105544;28;20525;-78
2021/12/22 02:13:02;;;;;;;28.47;12.67;;;;;;;;;;5105429;28;20440;-78
2021/12/22 02:15:33;;;;;;;12.93;9.13;;;;;;;;;;5095308;28;20450;-78
2021/12/22 02:18:04;;;;;;;67.63;25.20;;;;;;;;;;5102570;28;20492;-78
2021/12/22 02:20:33;;;;;;;23.10;11.00;;;;;;;;;;5097136;28;20441;-78
2021/12/22 02:23:00;;;;;;;9.13;6.67;;;;;;;;;;5108813;28;20452;-78
2021/12/22 02:25:36;;;;;;;23.40;10.90;;;;;;;;;;5092043;28;20450;-78
2021/12/22 02:28:09;;;;;;;47.77;15.37;;;;;;;;;;5091889;28;20422;-78
2021/12/22 02:30:36;;;;;;;57.77;23.10;;;;;;;;;;5109666;28;20434;-78
2021/12/22 02:36:06;;;;;;;60.20;23.23;;;;;;;;;;5111882;28;20528;-78
2021/12/22 02:38:33;;;;;;;84.50;30.10;;;;;;;;;;5107763;28;20520;-79
2021/12/22 02:41:00;;;;;;;23.23;10.23;;;;;;;;;;5099527;28;21010;-78
2021/12/22 02:43:32;;;;;;;35.27;12.53;;;;;;;;;;5100031;28;20946;-78
2021/12/22 02:45:59;;;;;;;18.77;8.13;;;;;;;;;;5107846;28;20441;-78
2021/12/22 02:48:30;;;;;;;24.53;10.47;;;;;;;;;;5105377;28;20450;-78
2021/12/22 02:51:00;;;;;;;42.57;13.57;;;;;;;;;;5102250;28;20426;-78
2021/12/22 02:53:37;;;;;;;64.53;22.60;;;;;;;;;;5096983;28;20458;-78
2021/12/22 02:56:13;;;;;;;31.90;10.70;;;;;;;;;;5108454;28;20438;-78
2021/12/22 02:58:48;;;;;;;32.10;11.83;;;;;;;;;;5099853;28;20482;-78
2021/12/22 03:01:28;;;;;;;8.37;4.57;;;;;;;;;;5102283;28;20437;-79
2021/12/22 03:03:58;;;;;;;78.00;21.67;;;;;;;;;;5091570;28;21119;-78
2021/12/22 03:06:31;;;;;;;67.80;22.03;;;;;;;;;;5091912;28;20414;-78
2021/12/22 03:08:58;;;;;;;51.53;18.10;;;;;;;;;;5091438;28;20494;-79
2021/12/22 03:11:25;;;;;;;30.20;10.97;;;;;;;;;;5108558;28;20465;-78
2021/12/22 03:13:53;;;;;;;86.17;30.67;;;;;;;;;;5098443;28;20445;-78
2021/12/22 03:16:20;;;;;;;54.80;20.27;;;;;;;;;;5100726;28;20442;-79
2021/12/22 03:18:48;;;;;;;316.73;111.17;;;;;;;;;;5094351;28;20477;-78
2021/12/22 03:21:20;;;;;;;118.53;41.33;;;;;;;;;;5095202;28;20446;-78
2021/12/22 03:23:51;;;;;;;9.10;6.43;;;;;;;;;;5095112;28;20434;-78
2021/12/22 03:26:20;;;;;;;38.50;15.47;;;;;;;;;;5095054;28;20976;-77
2021/12/22 03:28:47;;;;;;;28.83;11.17;;;;;;;;;;5102933;28;20468;-77
2021/12/22 03:31:15;;;;;;;53.70;20.27;;;;;;;;;;5115138;28;20441;-77
2021/12/22 03:33:43;;;;;;;17.50;8.00;;;;;;;;;;5115207;28;20444;-77
2021/12/22 03:36:10;;;;;;;53.00;26.13;;;;;;;;;;5115483;28;20494;-78
2021/12/22 03:38:38;;;;;;;26.93;13.47;;;;;;;;;;5113195;28;20483;-78
2021/12/22 03:41:08;;;;;;;8.63;3.53;;;;;;;;;;5100171;28;20525;-78
2021/12/22 03:43:36;;;;;;;15.10;6.13;;;;;;;;;;5105184;28;20526;-77
2021/12/22 03:46:04;;;;;;;5.47;3.83;;;;;;;;;;5107914;28;20494;-78
2021/12/22 03:48:31;;;;;;;56.57;19.13;;;;;;;;;;5114913;28;20465;-77
2021/12/22 03:50:58;;;;;;;42.90;14.83;;;;;;;;;;5114928;28;20941;-78
2021/12/22 03:53:26;;;;;;;75.07;26.77;;;;;;;;;;5097587;28;20442;-77
2021/12/22 03:55:53;;;;;;;90.43;31.07;;;;;;;;;;5110363;28;20283;-77
2021/12/22 03:58:22;;;;;;;32.43;12.67;;;;;;;;;;5102500;28;20219;-77
2021/12/22 04:00:51;;;;;;;7.07;4.60;;;;;;;;;;5103163;28;20434;-77
2021/12/22 04:03:22;;;;;;;19.33;8.77;;;;;;;;;;5094610;28;20457;-77
2021/12/22 04:05:49;;;;;;;18.80;8.57;;;;;;;;;;5094206;28;20429;-76
2021/12/22 04:08:18;;;;;;;74.73;24.60;;;;;;;;;;5094061;28;20535;-78
2021/12/22 04:10:46;;;;;;;31.57;15.73;;;;;;;;;;5098103;28;20475;-77
2021/12/22 04:13:14;;;;;;;84.83;33.90;;;;;;;;;;5106351;28;20446;-77
2021/12/22 04:15:44;;;;;;;55.67;25.83;;;;;;;;;;5105724;28;20528;-77
2021/12/22 04:18:12;;;;;;;52.63;25.20;;;;;;;;;;5098023;28;20528;-78
2021/12/22 04:20:40;;;;;;;21.10;10.10;;;;;;;;;;5110523;28;20664;-78
2021/12/22 04:23:07;;;;;;;49.60;21.97;;;;;;;;;;5095596;28;20873;-78
2021/12/22 04:25:35;;;;;;;74.77;34.77;;;;;;;;;;5103686;28;20994;-77
2021/12/22 04:28:08;;;;;;;68.30;31.67;;;;;;;;;;5114165;28;20192;-77
2021/12/22 04:30:38;;;;;;;97.93;39.77;;;;;;;;;;5096558;28;20950;-77
2021/12/22 04:33:07;;;;;;;35.93;17.63;;;;;;;;;;5107942;28;20529;-77
2021/12/22 04:35:35;;;;;;;27.23;12.27;;;;;;;;;;5103394;28;20445;-77
2021/12/22 04:38:02;;;;;;;34.63;16.37;;;;;;;;;;5098547;28;20480;-77
2021/12/22 04:40:30;;;;;;;53.57;22.37;;;;;;;;;;5109059;28;21006;-77
2021/12/22 04:42:57;;;;;;;61.10;24.97;;;;;;;;;;5096997;28;20506;-77
2021/12/22 04:45:24;;;;;;;46.53;16.17;;;;;;;;;;5103991;28;20279;-77
2021/12/22 04:47:52;;;;;;;79.07;26.23;;;;;;;;;;5104855;28;20452;-78
2021/12/22 04:50:22;;;;;;;47.93;17.13;;;;;;;;;;5096464;28;20872;-78
2021/12/22 04:52:55;;;;;;;16.60;9.80;;;;;;;;;;5095396;28;20444;-77
2021/12/22 04:55:25;;;;;;;13.70;7.97;;;;;;;;;;5103928;28;20442;-78
2021/12/22 04:57:52;;;;;;;10.03;6.03;;;;;;;;;;5104695;28;20845;-78
2021/12/22 05:00:21;;;;;;;18.53;8.47;;;;;;;;;;5096623;28;20893;-78
2021/12/22 05:02:48;;;;;;;14.20;7.40;;;;;;;;;;5106504;28;20453;-78
2021/12/22 05:05:15;;;;;;;25.80;11.00;;;;;;;;;;5098785;28;20525;-78
2021/12/22 05:07:47;;;;;;;8.53;5.80;;;;;;;;;;5112068;28;20945;-78
2021/12/22 05:10:15;;;;;;;15.60;8.57;;;;;;;;;;5103278;28;20477;-78
2021/12/22 05:12:42;;;;;;;12.20;7.97;;;;;;;;;;5100621;28;20445;-79
2021/12/22 05:15:11;;;;;;;5.67;4.57;;;;;;;;;;5101089;28;20207;-77
2021/12/22 05:18:12;;;;;;;23.67;10.03;;;;;;;;;;5102042;28;20441;-78
2021/12/22 05:20:39;;;;;;;8.47;4.80;;;;;;;;;;5111606;28;20945;-78
2021/12/22 05:23:07;;;;;;;12.17;7.13;;;;;;;;;;5107149;28;20465;-78
2021/12/22 05:25:35;;;;;;;9.53;5.50;;;;;;;;;;5102603;28;20453;-78
2021/12/22 05:28:02;;;;;;;9.03;5.93;;;;;;;;;;5098870;28;20450;-78
2021/12/22 05:30:29;;;;;;;10.27;8.13;;;;;;;;;;5109183;28;20821;-78
2021/12/22 05:32:57;;;;;;;4.77;4.27;;;;;;;;;;5097185;28;20454;-78
2021/12/22 05:35:24;;;;;;;8.13;6.03;;;;;;;;;;5104469;28;20443;-78
2021/12/22 05:37:52;;;;;;;9.63;5.97;;;;;;;;;;5094095;28;20442;-78
2021/12/22 05:40:21;;;;;;;7.23;5.03;;;;;;;;;;5112765;28;20572;-78
2021/12/22 05:42:48;;;;;;;7.27;5.73;;;;;;;;;;5112601;28;20510;-78
2021/12/22 05:45:15;;;;;;;28.83;14.03;;;;;;;;;;5110114;28;20945;-78
2021/12/22 05:47:43;;;;;;;11.30;7.60;;;;;;;;;;5092310;28;20443;-78
2021/12/22 05:50:10;;;;;;;20.87;11.50;;;;;;;;;;5092345;28;20541;-78
2021/12/22 05:52:38;;;;;;;10.33;9.20;;;;;;;;;;5112725;28;20468;-78
2021/12/22 05:55:06;;;;;;;8.73;7.43;;;;;;;;;;5112534;28;20509;-78
2021/12/22 05:57:34;;;;;;;12.30;8.13;;;;;;;;;;5097568;28;20442;-78
2021/12/22 06:00:02;;;;;;;8.00;6.87;;;;;;;;;;5092053;28;20478;-78
2021/12/22 06:02:29;;;;;;;10.93;8.83;;;;;;;;;;5112058;28;20503;-78
2021/12/22 06:04:56;;;;;;;10.63;9.53;;;;;;;;;;5112822;28;20449;-78
2021/12/22 06:07:23;;;;;;;24.57;17.23;;;;;;;;;;5112868;28;20441;-78
2021/12/22 06:09:51;;;;;;;64.13;39.50;;;;;;;;;;5112248;28;20484;-78
2021/12/22 06:12:18;;;;;;;83.83;52.80;;;;;;;;;;5112471;28;20445;-79
2021/12/22 06:14:47;;;;;;;59.90;38.70;;;;;;;;;;5112401;28;20441;-78
2021/12/22 06:17:14;;;;;;;44.03;30.33;;;;;;;;;;5112256;28;20441;-78
2021/12/22 06:19:41;;;;;;;21.50;17.57;;;;;;;;;;5096623;28;20473;-78
2021/12/22 06:22:09;;;;;;;20.97;15.50;;;;;;;;;;5099442;28;20526;-78
2021/12/22 06:24:36;;;;;;;28.90;18.77;;;;;;;;;;5100928;28;20434;-78
2021/12/22 06:27:03;;;;;;;32.03;19.73;;;;;;;;;;5104280;28;20793;-78
2021/12/22 06:29:32;;;;;;;35.67;20.67;;;;;;;;;;5102160;28;20806;-78
2021/12/22 06:32:01;;;;;;;35.43;21.63;;;;;;;;;;5107473;28;20483;-78
2021/12/22 06:34:28;;;;;;;30.53;20.77;;;;;;;;;;5112688;28;20815;-78
2021/12/22 06:36:55;;;;;;;106.67;49.93;;;;;;;;;;5112348;28;20449;-78
2021/12/22 06:39:23;;;;;;;43.37;26.00;;;;;;;;;;5112214;28;20506;-79
2021/12/22 06:41:50;;;;;;;42.23;22.67;;;;;;;;;;5107956;28;20441;-78
2021/12/22 06:44:18;;;;;;;26.27;17.40;;;;;;;;;;5104585;28;20878;-79
2021/12/22 06:46:45;;;;;;;29.57;16.53;;;;;;;;;;5111174;28;20494;-79
2021/12/22 06:49:14;;;;;;;58.83;35.30;;;;;;;;;;5101262;28;20990;-78
2021/12/22 06:51:41;;;;;;;22.50;14.97;;;;;;;;;;5089985;28;20442;-78
2021/12/22 06:54:08;;;;;;;15.80;12.03;;;;;;;;;;5110694;28;20449;-79
2021/12/22 06:56:38;;;;;;;20.50;13.77;;;;;;;;;;5110779;28;20437;-78
2021/12/22 06:59:05;;;;;;;21.37;13.70;;;;;;;;;;5108140;28;20527;-79
2021/12/22 07:01:34;;;;;;;17.23;11.57;;;;;;;;;;5108745;28;20447;-78
2021/12/22 07:04:03;;;;;;;21.57;15.53;;;;;;;;;;5100788;28;20430;-79
2021/12/22 07:06:32;;;;;;;24.67;17.73;;;;;;;;;;5114425;28;20480;-78
2021/12/22 07:09:00;;;;;;;24.17;18.00;;;;;;;;;;5113646;28;20527;-79
2021/12/22 07:11:28;;;;;;;24.73;16.97;;;;;;;;;;5114252;28;21025;-78
2021/12/22 07:13:55;;;;;;;24.30;17.67;;;;;;;;;;5115629;28;20445;-78
2021/12/22 07:16:22;;;;;;;27.10;14.20;;;;;;;;;;5115558;28;20436;-79
2021/12/22 07:18:50;;;;;;;23.63;15.80;;;;;;;;;;5114227;28;20441;-79
2021/12/22 07:21:17;;;;;;;22.07;15.13;;;;;;;;;;5113843;28;20188;-80
2021/12/22 07:23:46;;;;;;;23.33;16.70;;;;;;;;;;5115372;28;20440;-80
2021/12/22 07:26:14;;;;;;;31.27;23.03;;;;;;;;;;5115450;28;20743;-79
2021/12/22 07:28:42;;;;;;;22.43;15.90;;;;;;;;;;5115423;28;20202;-80
2021/12/22 07:31:10;;;;;;;13.50;10.87;;;;;;;;;;5115330;28;20203;-80
2021/12/22 07:33:37;;;;;;;17.47;12.23;;;;;;;;;;5115560;28;20272;-80
2021/12/22 07:36:06;;;;;;;27.90;17.03;;;;;;;;;;5115448;28;20651;-80
2021/12/22 07:38:36;;;;;;;18.33;13.77;;;;;;;;;;5115746;28;20671;-80
2021/12/22 07:41:07;;;;;;;80.57;59.50;;;;;;;;;;5115085;28;20208;-80
2021/12/22 07:43:35;;;;;;;76.27;53.43;;;;;;;;;;5115094;28;20215;-80
2021/12/22 07:46:03;;;;;;;46.23;34.70;;;;;;;;;;5115568;28;20612;-80
2021/12/22 07:48:30;;;;;;;72.10;45.77;;;;;;;;;;5114902;28;20195;-80
2021/12/22 07:50:57;;;;;;;24.10;17.80;;;;;;;;;;5114921;28;20244;-80
2021/12/22 07:53:25;;;;;;;12.73;9.50;;;;;;;;;;5115180;28;20200;-81
2021/12/22 07:55:53;;;;;;;72.67;44.70;;;;;;;;;;5114832;28;20195;-81
2021/12/22 07:58:23;;;;;;;43.50;22.50;;;;;;;;;;5115111;28;20198;-81
2021/12/22 08:00:50;;;;;;;10.90;7.30;;;;;;;;;;5114949;28;20274;-82
2021/12/22 08:03:18;;;;;;;7.60;5.23;;;;;;;;;;5114531;28;20237;-82
2021/12/22 08:05:45;;;;;;;8.37;5.17;;;;;;;;;;5114287;28;20207;-82
2021/12/22 08:08:13;;;;;;;42.37;22.73;;;;;;;;;;5114375;28;20196;-82
2021/12/22 08:10:41;;;;;;;17.00;11.00;;;;;;;;;;5114584;28;20682;-82
2021/12/22 08:13:08;;;;;;;6.67;5.30;;;;;;;;;;5114536;28;20249;-82
2021/12/22 08:15:37;;;;;;;50.17;29.20;;;;;;;;;;5114390;28;20203;-82
2021/12/22 08:18:04;;;;;;;9.10;8.23;;;;;;;;;;5114494;28;20738;-82
2021/12/22 08:20:32;;;;;;;11.23;7.13;;;;;;;;;;5114230;28;20223;-82
2021/12/22 08:22:59;;;;;;;17.40;11.57;;;;;;;;;;5114337;28;20192;-82
2021/12/22 08:25:26;;;;;;;19.70;13.63;;;;;;;;;;5114236;28;20203;-81
2021/12/22 08:27:54;;;;;;;10.27;7.90;;;;;;;;;;5114227;28;20295;-82
2021/12/22 08:30:21;;;;;;;8.47;6.20;;;;;;;;;;5114116;28;20679;-81
2021/12/22 08:32:50;;;;;;;9.67;7.00;;;;;;;;;;5114167;28;20191;-81
2021/12/22 08:35:20;;;;;;;7.87;5.20;;;;;;;;;;5114015;28;20202;-81
2021/12/22 08:40:31;;;;;;;5.90;4.43;;;;;;;;;;5114192;28;20290;-81
2021/12/22 08:42:59;;;;;;;7.03;5.37;;;;;;;;;;5113884;28;20224;-81
2021/12/22 08:45:26;;;;;;;6.97;5.77;;;;;;;;;;5113859;28;20195;-81
2021/12/22 08:47:55;;;;;;;9.90;7.43;;;;;;;;;;5113835;28;20687;-82
2021/12/22 08:50:24;;;;;;;9.07;8.17;;;;;;;;;;5113785;28;20199;-81
2021/12/22 08:52:54;;;;;;;11.50;9.13;;;;;;;;;;5114108;28;20203;-82
2021/12/22 08:55:21;;;;;;;11.77;8.00;;;;;;;;;;5113964;28;20195;-81
2021/12/22 08:57:48;;;;;;;10.93;9.37;;;;;;;;;;5113685;28;20245;-81
2021/12/22 09:00:16;;;;;;;9.30;8.37;;;;;;;;;;5113527;28;20229;-81
2021/12/22 09:02:45;;;;;;;9.73;7.37;;;;;;;;;;5113561;28;20249;-82
2021/12/22 09:05:14;;;;;;;15.70;11.93;;;;;;;;;;5113803;28;20220;-81
2021/12/22 09:07:41;;;;;;;18.17;14.17;;;;;;;;;;5113457;28;20199;-82
2021/12/22 09:10:09;;;;;;;18.13;11.73;;;;;;;;;;5113271;28;20249;-81
2021/12/22 09:12:37;;;;;;;11.77;9.83;;;;;;;;;;5113693;28;20332;-82
2021/12/22 09:15:05;;;;;;;8.03;6.63;;;;;;;;;;5113467;28;20199;-82
2021/12/22 09:17:32;;;;;;;11.87;9.03;;;;;;;;;;5113333;28;20660;-81
2021/12/22 09:19:59;;;;;;;9.67;8.77;;;;;;;;;;5113083;28;20768;-81
2021/12/22 09:22:28;;;;;;;16.87;13.40;;;;;;;;;;5113141;28;20573;-81
2021/12/22 09:24:56;;;;;;;7.47;5.83;;;;;;;;;;5113053;28;20195;-81
2021/12/22 09:27:23;;;;;;;19.23;10.33;;;;;;;;;;5113043;28;20199;-82
2021/12/22 09:29:50;;;;;;;6.77;4.80;;;;;;;;;;5113022;28;20225;-81
2021/12/22 09:32:18;;;;;;;11.80;8.77;;;;;;;;;;5113204;28;20251;-81
2021/12/22 09:34:46;;;;;;;7.10;6.47;;;;;;;;;;5112896;28;20230;-81
2021/12/22 09:37:14;;;;;;;7.13;5.93;;;;;;;;;;5113298;28;20195;-82
2021/12/22 09:39:42;;;;;;;8.60;7.17;;;;;;;;;;5112701;28;20695;-82
2021/12/22 09:42:11;;;;;;;5.27;4.77;;;;;;;;;;5112804;28;20199;-81
2021/12/22 09:44:44;;;;;;;5.47;4.97;;;;;;;;;;5113070;28;20253;-81
2021/12/22 09:47:12;;;;;;;5.27;4.67;;;;;;;;;;5112874;28;20191;-82
2021/12/22 09:50:06;;;;;;;25.43;13.73;;;;;;;;;;5112721;28;20195;-82
2021/12/22 09:52:33;;;;;;;4.90;3.87;;;;;;;;;;5112725;28;20195;-82
2021/12/22 09:55:02;;;;;;;3.73;2.97;;;;;;;;;;5112575;28;20199;-82
2021/12/22 09:57:30;;;;;;;6.40;3.90;;;;;;;;;;5112564;28;20192;-82
2021/12/22 09:59:59;;;;;;;3.10;2.63;;;;;;;;;;5112832;28;20223;-82
2021/12/22 10:02:29;;;;;;;7.10;4.73;;;;;;;;;;5112893;28;20206;-82
2021/12/22 10:04:57;;;;;;;4.33;3.47;;;;;;;;;;5112548;28;20208;-82
2021/12/22 10:07:27;;;;;;;4.87;4.43;;;;;;;;;;5112532;28;20195;-82
2021/12/22 10:09:55;;;;;;;6.60;6.00;;;;;;;;;;5112274;28;20227;-82
2021/12/22 10:12:26;;;;;;;5.80;5.17;;;;;;;;;;5112769;28;20616;-83
2021/12/22 10:14:55;;;;;;;17.30;13.13;;;;;;;;;;5112478;28;20191;-82
2021/12/22 10:17:36;;;;;;;31.80;15.93;;;;;;;;;;5112368;28;20231;-83
2021/12/22 10:20:06;;;;;;;15.33;12.00;;;;;;;;;;5112269;28;20207;-83
2021/12/22 10:22:35;;;;;;;9.77;8.77;;;;;;;;;;5112565;28;20625;-83
2021/12/22 10:25:08;;;;;;;15.50;13.87;;;;;;;;;;5112638;28;20252;-83
2021/12/22 10:27:37;;;;;;;20.00;17.23;;;;;;;;;;5113652;28;20191;-83
2021/12/22 10:30:29;;;;;;;22.07;14.00;;;;;;;;;;5116858;28;20191;-83
2021/12/22 10:33:12;;;;;;;5.13;4.73;;;;;;;;;;5116466;28;20191;-83
2021/12/22 10:35:39;;;;;;;12.10;10.70;;;;;;;;;;5116498;28;20180;-84
2021/12/22 10:38:08;;;;;;;6.97;6.27;;;;;;;;;;5116368;28;20191;-83
2021/12/22 10:40:38;;;;;;;6.70;5.37;;;;;;;;;;5116269;28;20219;-83
2021/12/22 10:43:07;;;;;;;9.93;8.47;;;;;;;;;;5116347;28;20196;-84
2021/12/22 10:45:35;;;;;;;8.63;3.60;;;;;;;;;;5116305;28;20199;-83
2021/12/22 10:50:54;;;;;;;9.70;8.23;;;;;;;;;;5116501;28;20178;-84
2021/12/22 10:53:21;;;;;;;6.10;5.53;;;;;;;;;;5116138;28;20184;-84
2021/12/22 10:55:51;;;;;;;4.33;3.70;;;;;;;;;;5116022;28;20290;-84
2021/12/22 10:58:24;;;;;;;8.70;7.47;;;;;;;;;;5116252;28;20199;-84
2021/12/22 11:01:04;;;;;;;3.50;3.20;;;;;;;;;;5115963;28;20199;-84
2021/12/22 11:03:42;;;;;;;5.30;4.87;;;;;;;;;;5115991;28;20179;-84
2021/12/22 11:06:20;;;;;;;4.27;2.67;;;;;;;;;;5116246;28;20206;-84
2021/12/22 11:08:55;;;;;;;3.50;3.00;;;;;;;;;;5115649;28;20235;-84
2021/12/22 11:11:23;;;;;;;2.47;2.27;;;;;;;;;;5116129;28;20601;-84
2021/12/22 11:14:05;;;;;;;2.73;2.53;;;;;;;;;;5116075;28;20222;-84
2021/12/22 11:16:32;;;;;;;4.97;4.33;;;;;;;;;;5115757;28;20636;-84
2021/12/22 11:19:10;;;;;;;10.13;8.63;;;;;;;;;;5115325;28;20668;-84
2021/12/22 11:21:57;;;;;;;25.80;19.17;;;;;;;;;;5115498;28;20301;-84
2021/12/22 11:24:25;;;;;;;11.93;9.97;;;;;;;;;;5115601;28;20544;-84
2021/12/22 11:26:52;;;;;;;16.13;12.63;;;;;;;;;;5114898;28;20280;-83
2021/12/22 11:29:22;;;;;;;5.70;4.50;;;;;;;;;;5114816;28;20206;-84
2021/12/22 11:31:50;;;;;;;4.80;4.40;;;;;;;;;;5115649;28;20278;-84
2021/12/22 11:34:19;;;;;;;3.57;3.27;;;;;;;;;;5115034;28;20664;-84
2021/12/22 11:36:46;;;;;;;3.47;2.93;;;;;;;;;;5115345;28;20203;-84
2021/12/22 11:39:14;;;;;;;4.17;3.37;;;;;;;;;;5113785;28;20208;-84
2021/12/22 11:41:54;;;;;;;3.43;3.13;;;;;;;;;;5115435;28;20601;-84
2021/12/22 11:44:23;;;;;;;6.67;2.50;;;;;;;;;;5115448;28;20190;-84
2021/12/22 11:46:51;;;;;;;2.57;2.10;;;;;;;;;;5114992;28;20199;-83
2021/12/22 11:49:20;;;;;;;2.57;2.33;;;;;;;;;;5115049;28;20199;-84
2021/12/22 11:51:48;;;;;;;2.60;2.40;;;;;;;;;;5115060;28;20676;-84
2021/12/22 11:54:16;;;;;;;5.83;3.30;;;;;;;;;;5114945;28;20196;-83
2021/12/22 11:56:45;;;;;;;3.20;2.90;;;;;;;;;;5115220;28;20562;-84
2021/12/22 11:59:28;;;;;;;3.20;2.70;;;;;;;;;;5114941;28;20195;-84
2021/12/22 12:02:20;;;;;;;4.17;2.93;;;;;;;;;;5114758;28;20722;-84
2021/12/22 12:04:49;;;;;;;10.03;3.87;;;;;;;;;;5110382;28;20702;-84
2021/12/22 12:07:50;;;;;;;6.40;4.13;;;;;;;;;;5115038;28;20195;-85
2021/12/22 12:10:40;;;;;;;3.67;3.30;;;;;;;;;;5114303;28;20234;-84
2021/12/22 12:13:15;;;;;;;3.23;2.93;;;;;;;;;;5114683;28;20223;-84
2021/12/22 12:22:18;;;;;;;7.37;3.03;;;;;;;;;;5114509;28;20210;-84
2021/12/22 12:24:48;;;;;;;4.97;3.23;;;;;;;;;;5114474;28;20183;-84
2021/12/22 12:27:41;;;;;;;5.13;4.63;;;;;;;;;;5114301;28;20745;-84
2021/12/22 12:30:19;;;;;;;3.70;3.30;;;;;;;;;;5114607;28;20187;-84
2021/12/22 12:33:09;;;;;;;4.07;3.00;;;;;;;;;;5114387;28;20180;-84
2021/12/22 12:35:52;;;;;;;3.30;2.60;;;;;;;;;;5114480;28;20559;-84
2021/12/22 12:38:19;;;;;;;5.27;3.13;;;;;;;;;;5114148;28;20191;-80
2021/12/22 12:41:23;;;;;;;4.17;3.30;;;;;;;;;;5114284;28;20598;-83
2021/12/22 12:44:12;;;;;;;3.50;3.03;;;;;;;;;;5114053;28;20188;-83
2021/12/22 12:46:50;;;;;;;3.77;3.23;;;;;;;;;;5108102;28;20195;-83
2021/12/22 12:49:42;;;;;;;3.47;3.10;;;;;;;;;;5113959;28;20712;-83
2021/12/22 12:52:32;;;;;;;3.10;2.80;;;;;;;;;;5113734;28;20180;-83
2021/12/22 12:55:16;;;;;;;2.70;2.23;;;;;;;;;;5113765;28;20651;-83
2021/12/22 12:57:44;;;;;;;6.23;3.20;;;;;;;;;;5113684;28;20815;-84
2021/12/22 13:00:23;;;;;;;5.77;4.57;;;;;;;;;;5113647;28;20729;-83
2021/12/22 13:03:04;;;;;;;5.97;3.30;;;;;;;;;;5113577;28;20183;-83
2021/12/22 13:05:32;;;;;;;3.33;2.80;;;;;;;;;;5114656;28;20543;-83
2021/12/22 13:08:08;;;;;;;4.43;3.53;;;;;;;;;;5113558;28;20245;-83
2021/12/22 13:10:36;;;;;;;8.93;3.53;;;;;;;;;;5113357;28;20227;-83
2021/12/22 13:15:52;;;;;;;15.00;11.50;;;;;;;;;;5110474;28;20195;-83
2021/12/22 13:18:26;;;;;;;15.13;12.30;;;;;;;;;;5113613;28;20542;-83
2021/12/22 13:20:57;;;;;;;15.47;10.37;;;;;;;;;;5113236;28;20210;-83
2021/12/22 13:23:30;;;;;;;23.80;15.63;;;;;;;;;;5113584;28;20272;-83
2021/12/22 13:25:57;;;;;;;19.47;12.73;;;;;;;;;;5113522;28;20180;-83
2021/12/22 13:28:26;;;;;;;10.20;7.63;;;;;;;;;;5112971;28;20647;-83
2021/12/22 13:30:56;;;;;;;16.60;12.17;;;;;;;;;;5113105;28;20192;-82
2021/12/22 13:33:24;;;;;;;138.53;56.23;;;;;;;;;;5113018;28;20203;-83
2021/12/22 13:35:54;;;;;;;24.70;17.77;;;;;;;;;;5112966;28;20235;-82
2021/12/22 13:38:23;;;;;;;21.40;15.00;;;;;;;;;;5112905;28;20195;-83
2021/12/22 13:40:53;;;;;;;22.33;15.40;;;;;;;;;;5112750;28;20314;-82
2021/12/22 13:43:29;;;;;;;32.07;22.43;;;;;;;;;;5112854;28;20336;-82
2021/12/22 13:46:00;;;;;;;57.67;36.93;;;;;;;;;;5113046;28;20187;-83
2021/12/22 13:48:28;;;;;;;36.53;24.47;;;;;;;;;;5112880;28;20199;-83
2021/12/22 13:50:58;;;;;;;12.87;10.50;;;;;;;;;;5112770;28;20282;-82
2021/12/22 13:53:27;;;;;;;15.53;12.20;;;;;;;;;;5112726;28;20198;-83
2021/12/22 13:55:58;;;;;;;9.90;8.90;;;;;;;;;;5112835;28;20199;-82
2021/12/22 13:58:37;;;;;;;14.07;11.70;;;;;;;;;;5113023;28;20184;-83
2021/12/22 14:01:26;;;;;;;16.80;15.00;;;;;;;;;;5112610;28;20712;-83
2021/12/22 14:04:17;;;;;;;11.00;8.70;;;;;;;;;;5112551;28;20574;-82
2021/12/22 14:06:48;;;;;;;28.60;18.30;;;;;;;;;;5112613;28;20187;-82
2021/12/22 14:09:18;;;;;;;44.17;31.13;;;;;;;;;;5112419;28;20235;-82
2021/12/22 14:11:47;;;;;;;35.53;21.90;;;;;;;;;;5113035;28;20544;-82
2021/12/22 14:14:35;;;;;;;30.63;21.20;;;;;;;;;;5112371;28;20204;-82
2021/12/22 14:17:18;;;;;;;32.83;21.00;;;;;;;;;;5112444;28;20671;-82
2021/12/22 14:20:02;;;;;;;24.67;17.13;;;;;;;;;;5112579;28;20287;-82
2021/12/22 14:22:32;;;;;;;24.37;16.67;;;;;;;;;;5112362;28;20199;-82
2021/12/22 14:25:01;;;;;;;21.43;16.83;;;;;;;;;;5112263;28;20257;-82
2021/12/22 14:27:35;;;;;;;20.80;16.17;;;;;;;;;;5112325;28;20229;-82
2021/12/22 14:30:03;;;;;;;27.27;20.40;;;;;;;;;;5112624;28;20195;-82
2021/12/22 14:32:34;;;;;;;28.03;21.33;;;;;;;;;;5112556;28;20199;-82
2021/12/22 14:35:30;;;;;;;63.13;41.63;;;;;;;;;;5112201;28;20188;-82
2021/12/22 14:37:59;;;;;;;55.37;33.73;;;;;;;;;;5112243;28;20195;-82
2021/12/22 14:40:27;;;;;;;117.47;53.20;;;;;;;;;;5112300;28;20213;-82
2021/12/22 14:42:58;;;;;;;89.97;44.83;;;;;;;;;;5112282;28;20260;-82
2021/12/22 14:45:30;;;;;;;47.23;23.87;;;;;;;;;;5112147;28;20275;-82
2021/12/22 14:48:07;;;;;;;86.43;39.47;;;;;;;;;;5112165;28;20184;-82
2021/12/22 14:50:35;;;;;;;164.73;69.57;;;;;;;;;;5112081;28;20191;-82
2021/12/22 14:53:04;;;;;;;113.03;55.10;;;;;;;;;;5108989;28;20659;-82
2021/12/22 14:55:46;;;;;;;120.20;59.30;;;;;;;;;;5105282;28;20215;-81
2021/12/22 14:58:17;;;;;;;60.83;36.03;;;;;;;;;;5091644;28;20576;-82
2021/12/22 15:00:48;;;;;;;44.53;22.90;;;;;;;;;;5095420;28;20241;-81
2021/12/22 15:03:15;;;;;;;124.80;72.60;;;;;;;;;;5111858;28;20203;-81
2021/12/22 15:05:43;;;;;;;62.73;39.80;;;;;;;;;;5112164;28;20282;-82
2021/12/22 15:08:10;;;;;;;47.97;23.10;;;;;;;;;;5111909;28;20195;-82